createdAt,value
2023-03-12T00:00:23.570Z,101195.98
2023-03-12T00:02:51.460Z,101197.59
2023-03-12T00:05:19.490Z,101189.60
2023-03-12T00:07:47.416Z,101198.20
2023-03-12T00:10:15.744Z,101189.34
2023-03-12T00:12:43.492Z,101199.94
2023-03-12T00:15:12.091Z,101200.76
2023-03-12T00:17:39.847Z,101198.43
2023-03-12T00:20:08.301Z,101199.25
2023-03-12T00:22:36.185Z,101197.19
2023-03-12T00:25:12.555Z,101198.83
2023-03-12T00:27:40.969Z,101197.91
2023-03-12T00:30:09.954Z,101205.63
2023-03-12T00:32:39.081Z,101208.83
2023-03-12T00:35:07.647Z,101201.02
2023-03-12T00:37:35.597Z,101207.75
2023-03-12T00:40:03.584Z,101210.17
2023-03-12T00:42:31.302Z,101209.65
2023-03-12T00:44:59.097Z,101207.52
2023-03-12T00:47:26.901Z,101216.74
2023-03-12T00:49:54.562Z,101216.38
2023-03-12T00:52:22.244Z,101219.49
2023-03-12T00:54:49.945Z,101214.16
2023-03-12T00:57:17.580Z,101215.30
2023-03-12T00:59:45.378Z,101209.55
2023-03-12T01:02:13.114Z,101215.93
2023-03-12T01:04:40.766Z,101222.17
2023-03-12T01:07:08.464Z,101225.09
2023-03-12T01:09:36.166Z,101210.95
2023-03-12T01:12:04.131Z,101218.25
2023-03-12T01:14:32.115Z,101221.55
2023-03-12T01:16:59.816Z,101221.26
2023-03-12T01:19:27.866Z,101216.45
2023-03-12T01:21:55.495Z,101217.70
2023-03-12T01:24:23.160Z,101221.78
2023-03-12T01:26:50.827Z,101215.77
2023-03-12T01:29:18.654Z,101217.79
2023-03-12T01:31:46.433Z,101216.58
2023-03-12T01:34:14.191Z,101226.23
2023-03-12T01:36:42.246Z,101221.72
2023-03-12T01:39:09.917Z,101220.02
2023-03-12T01:41:38.061Z,101224.04
2023-03-12T01:44:07.085Z,101225.61
2023-03-12T01:46:44.254Z,101223.58
2023-03-12T01:49:19.545Z,101222.66
2023-03-12T01:52:08.400Z,101229.50
2023-03-12T01:54:44.584Z,101220.93
2023-03-12T01:57:41.923Z,101223.32
2023-03-12T02:00:16.747Z,101222.08
2023-03-12T02:02:45.846Z,101218.51
2023-03-12T02:05:33.721Z,101218.97
2023-03-12T02:08:01.602Z,101218.61
2023-03-12T02:10:29.373Z,101215.80
2023-03-12T02:12:57.255Z,101212.07
2023-03-12T02:15:25.142Z,101213.73
2023-03-12T02:17:53.101Z,101211.32
2023-03-12T02:20:33.545Z,101207.27
2023-03-12T02:23:10.292Z,101212.23
2023-03-12T02:25:39.702Z,101213.02
2023-03-12T02:28:10.471Z,101213.80
2023-03-12T02:30:40.126Z,101223.13
2023-03-12T02:33:09.983Z,101223.58
2023-03-12T02:35:38.469Z,101215.86
2023-03-12T02:38:41.014Z,101217.98
2023-03-12T02:41:14.168Z,101217.98
2023-03-12T02:43:46.192Z,101217.89
2023-03-12T02:46:15.054Z,101218.25
2023-03-12T02:48:43.090Z,101228.19
2023-03-12T02:51:11.031Z,101223.68
2023-03-12T02:53:38.745Z,101224.04
2023-03-12T02:56:06.836Z,101228.38
2023-03-12T02:58:34.745Z,101237.70
2023-03-12T03:01:02.518Z,101234.05
2023-03-12T03:03:30.257Z,101235.02
2023-03-12T03:05:58.219Z,101232.28
2023-03-12T03:08:25.953Z,101237.94
2023-03-12T03:10:53.997Z,101233.52
2023-03-12T03:13:21.694Z,101233.95
2023-03-12T03:15:49.389Z,101247.78
2023-03-12T03:18:17.084Z,101239.27
2023-03-12T03:20:45.772Z,101236.07
2023-03-12T03:23:13.469Z,101245.36
2023-03-12T03:25:41.141Z,101258.70
2023-03-12T03:28:08.878Z,101242.09
2023-03-12T03:30:36.851Z,101255.49
2023-03-12T03:33:04.650Z,101248.20
2023-03-12T03:35:32.343Z,101246.89
2023-03-12T03:38:00.055Z,101253.80
2023-03-12T03:40:27.708Z,101247.71
2023-03-12T03:42:55.399Z,101237.87
2023-03-12T03:45:23.075Z,101237.51
2023-03-12T03:47:50.766Z,101247.98
2023-03-12T03:50:18.760Z,101242.64
2023-03-12T03:52:46.434Z,101234.60
2023-03-12T03:55:14.100Z,101228.02
2023-03-12T03:57:41.855Z,101232.44
2023-03-12T04:00:11.101Z,101226.78
2023-03-12T04:02:38.883Z,101220.27
2023-03-12T04:05:06.911Z,101212.59
2023-03-12T04:07:34.645Z,101207.69
2023-03-12T04:10:02.475Z,101197.23
2023-03-12T04:12:30.845Z,101193.63
2023-03-12T04:14:58.471Z,101202.55
2023-03-12T04:17:26.162Z,101177.02
2023-03-12T04:19:53.919Z,101176.69
2023-03-12T04:22:21.621Z,101172.24
2023-03-12T04:24:49.293Z,101189.70
2023-03-12T04:27:16.926Z,101192.55
2023-03-12T04:29:44.686Z,101190.52
2023-03-12T04:32:12.831Z,101192.19
2023-03-12T04:34:40.443Z,101185.71
2023-03-12T04:37:08.971Z,101211.25
2023-03-12T04:39:36.586Z,101219.33
2023-03-12T04:42:04.347Z,101222.50
2023-03-12T04:44:32.116Z,101220.84
2023-03-12T04:46:59.849Z,101222.77
2023-03-12T04:49:27.594Z,101223.58
2023-03-12T04:51:55.248Z,101219.85
2023-03-12T04:54:23.665Z,101210.99
2023-03-12T04:56:51.488Z,101213.84
2023-03-12T04:59:19.156Z,101213.28
2023-03-12T05:01:46.827Z,101206.84
2023-03-12T05:04:14.665Z,101210.11
2023-03-12T05:06:42.367Z,101211.25
2023-03-12T05:09:10.194Z,101211.94
2023-03-12T05:11:39.829Z,101209.03
2023-03-12T05:14:07.662Z,101202.55
2023-03-12T05:16:35.405Z,101204.52
2023-03-12T05:19:03.561Z,101202.03
2023-03-12T05:21:32.077Z,101198.76
2023-03-12T05:24:00.453Z,101198.27
2023-03-12T05:26:33.616Z,101197.02
2023-03-12T05:29:03.047Z,101201.38
2023-03-12T05:31:36.415Z,101211.88
2023-03-12T05:34:05.535Z,101200.40
2023-03-12T05:36:33.258Z,101189.41
2023-03-12T05:39:01.044Z,101198.01
2023-03-12T05:41:31.155Z,101202.09
2023-03-12T05:43:59.273Z,101198.53
2023-03-12T05:46:28.677Z,101194.18
2023-03-12T05:48:56.588Z,101209.65
2023-03-12T05:51:24.332Z,101209.65
2023-03-12T05:53:52.225Z,101206.34
2023-03-12T05:56:20.072Z,101202.98
2023-03-12T05:58:50.661Z,101204.48
2023-03-12T06:01:21.796Z,101210.14
2023-03-12T06:03:49.909Z,101222.66
2023-03-12T06:06:18.254Z,101210.53
2023-03-12T06:08:46.929Z,101204.38
2023-03-12T06:11:14.887Z,101202.78
2023-03-12T06:13:42.674Z,101206.54
2023-03-12T06:16:22.384Z,101202.88
2023-03-12T06:18:50.694Z,101212.20
2023-03-12T06:21:21.886Z,101212.56
2023-03-12T06:23:50.533Z,101212.56
2023-03-12T06:26:19.387Z,101206.05
2023-03-12T06:28:48.834Z,101198.43
2023-03-12T06:31:17.554Z,101209.35
2023-03-12T06:33:45.360Z,101209.35
2023-03-12T06:36:13.476Z,101216.65
2023-03-12T06:38:41.700Z,101233.59
2023-03-12T06:41:11.212Z,101229.95
2023-03-12T06:43:40.726Z,101215.99
2023-03-12T06:46:10.825Z,101212.73
2023-03-12T06:48:42.227Z,101221.95
2023-03-12T06:51:11.541Z,101226.26
2023-03-12T06:53:42.189Z,101239.47
2023-03-12T06:56:11.092Z,101240.19
2023-03-12T06:58:38.815Z,101237.61
2023-03-12T07:01:06.641Z,101234.30
2023-03-12T07:03:34.615Z,101233.09
2023-03-12T07:06:02.336Z,101229.43
2023-03-12T07:08:33.053Z,101220.11
2023-03-12T07:11:02.218Z,101225.45
2023-03-12T07:13:30.649Z,101226.36
2023-03-12T07:15:58.403Z,101214.42
2023-03-12T07:18:26.364Z,101244.80
2023-03-12T07:20:54.824Z,101258.90
2023-03-12T07:23:23.250Z,101242.80
2023-03-12T07:25:51.377Z,101239.44
2023-03-12T07:28:19.979Z,101244.87
2023-03-12T07:30:54.140Z,101250.72
2023-03-12T07:33:23.080Z,101256.31
2023-03-12T07:35:51.946Z,101262.95
2023-03-12T07:38:20.214Z,101269.23
2023-03-12T07:40:58.892Z,101273.58
2023-03-12T07:43:26.735Z,101267.34
2023-03-12T07:45:54.458Z,101265.86
2023-03-12T07:48:22.458Z,101276.55
2023-03-12T07:50:50.839Z,101270.18
2023-03-12T07:53:18.880Z,101278.52
2023-03-12T07:55:48.291Z,101270.30
2023-03-12T07:58:17.516Z,101269.75
2023-03-12T08:00:46.583Z,101268.05
2023-03-12T08:03:14.623Z,101278.19
2023-03-12T08:05:42.680Z,101278.32
2023-03-12T08:08:10.600Z,101278.65
2023-03-12T08:10:38.830Z,101285.25
2023-03-12T08:13:06.584Z,101280.67
2023-03-12T08:15:34.643Z,101287.73
2023-03-12T08:18:02.539Z,101292.87
2023-03-12T08:20:31.360Z,101293.10
2023-03-12T08:22:59.061Z,101279.89
2023-03-12T08:25:27.036Z,101287.87
2023-03-12T08:27:54.863Z,101288.52
2023-03-12T08:30:22.622Z,101293.55
2023-03-12T08:32:50.472Z,101300.03
2023-03-12T08:35:18.177Z,101296.14
2023-03-12T08:37:45.879Z,101301.08
2023-03-12T08:40:14.301Z,101304.58
2023-03-12T08:42:43.440Z,101300.13
2023-03-12T08:45:12.750Z,101307.65
2023-03-12T08:47:42.711Z,101305.72
2023-03-12T08:50:15.208Z,101308.73
2023-03-12T08:52:43.311Z,101312.98
2023-03-12T08:55:14.110Z,101313.73
2023-03-12T08:57:42.362Z,101313.54
2023-03-12T09:00:16.077Z,101311.15
2023-03-12T09:02:47.691Z,101314.13
2023-03-12T09:05:15.447Z,101319.36
2023-03-12T09:07:43.441Z,101324.59
2023-03-12T09:10:11.620Z,101333.29
2023-03-12T09:12:39.365Z,101323.87
2023-03-12T09:15:07.912Z,101320.14
2023-03-12T09:17:35.735Z,101319.00
2023-03-12T09:20:03.420Z,101326.29
2023-03-12T09:22:31.802Z,101329.59
2023-03-12T09:24:59.435Z,101333.71
2023-03-12T09:27:27.165Z,101318.21
2023-03-12T09:30:02.967Z,101337.93
2023-03-12T09:32:30.807Z,101331.66
2023-03-12T09:34:58.706Z,101334.34
2023-03-12T09:37:26.513Z,101342.58
2023-03-12T09:39:54.671Z,101342.18
2023-03-12T09:42:54.647Z,101345.26
2023-03-12T09:45:32.666Z,101347.02
2023-03-12T09:48:03.298Z,101347.68
2023-03-12T09:50:44.882Z,101349.77
2023-03-12T09:53:28.487Z,101348.20
2023-03-12T09:55:59.153Z,101347.19
2023-03-12T09:58:30.842Z,101353.14
2023-03-12T10:01:08.763Z,101358.60
2023-03-12T10:03:57.509Z,101364.81
2023-03-12T10:06:30.816Z,101363.96
2023-03-12T10:09:01.330Z,101360.37
2023-03-12T10:11:49.512Z,101365.01
2023-03-12T10:14:38.586Z,101359.64
2023-03-12T10:17:24.780Z,101362.62
2023-03-12T10:20:11.488Z,101363.27
2023-03-12T10:22:47.922Z,101369.00
2023-03-12T10:25:48.562Z,101365.01
2023-03-12T10:28:24.007Z,101373.87
2023-03-12T10:30:58.096Z,101362.52
2023-03-12T10:33:39.603Z,101365.70
2023-03-12T10:36:42.787Z,101364.78
2023-03-12T10:39:20.313Z,101366.71
2023-03-12T10:41:49.963Z,101373.05
2023-03-12T10:44:26.718Z,101363.21
2023-03-12T10:47:26.768Z,101363.41
2023-03-12T10:49:54.718Z,101371.25
2023-03-12T10:52:24.518Z,101375.41
2023-03-12T10:54:54.217Z,101374.82
2023-03-12T10:57:22.320Z,101375.30
2023-03-12T10:59:52.436Z,101368.64
2023-03-12T11:02:34.608Z,101365.99
2023-03-12T11:05:19.404Z,101376.35
2023-03-12T11:07:47.453Z,101385.51
2023-03-12T11:10:25.149Z,101378.71
2023-03-12T11:13:02.847Z,101392.09
2023-03-12T11:15:43.024Z,101397.48
2023-03-12T11:18:19.795Z,101398.79
2023-03-12T11:20:49.006Z,101406.11
2023-03-12T11:23:30.170Z,101410.23
2023-03-12T11:26:02.780Z,101401.01
2023-03-12T11:28:42.998Z,101398.88
2023-03-12T11:31:47.324Z,101403.04
2023-03-12T11:34:27.510Z,101411.45
2023-03-12T11:37:00.829Z,101413.17
2023-03-12T11:39:52.984Z,101412.72
2023-03-12T11:42:51.764Z,101413.73
2023-03-12T11:45:33.922Z,101411.18
2023-03-12T11:48:12.218Z,101423.57
2023-03-12T11:50:58.786Z,101414.68
2023-03-12T11:54:17.743Z,101424.23
2023-03-12T11:56:52.986Z,101422.82
2023-03-12T11:59:49.558Z,101418.54
2023-03-12T12:02:40.461Z,101418.73
2023-03-12T12:05:45.250Z,101409.22
2023-03-12T12:08:21.593Z,101403.85
2023-03-12T12:11:18.095Z,101409.09
2023-03-12T12:13:58.153Z,101409.12
2023-03-12T12:16:37.915Z,101411.34
2023-03-12T12:19:21.368Z,101415.63
2023-03-12T12:22:17.089Z,101399.57
2023-03-12T12:25:03.590Z,101402.25
2023-03-12T12:27:37.644Z,101397.61
2023-03-12T12:30:11.544Z,101395.87
2023-03-12T12:33:11.232Z,101377.40
2023-03-12T12:35:44.231Z,101393.33
2023-03-12T12:38:34.940Z,101384.27
2023-03-12T12:41:17.843Z,101379.10
2023-03-12T12:43:50.650Z,101367.59
2023-03-12T12:46:22.389Z,101372.46
2023-03-12T12:48:54.981Z,101364.78
2023-03-12T12:51:31.102Z,101359.48
2023-03-12T12:54:04.153Z,101358.14
2023-03-12T12:56:49.908Z,101357.78
2023-03-12T12:59:44.749Z,101355.63
2023-03-12T13:02:21.496Z,101354.80
2023-03-12T13:04:49.805Z,101355.69
2023-03-12T13:07:17.641Z,101345.32
2023-03-12T13:09:47.887Z,101362.82
2023-03-12T13:12:26.204Z,101356.11
2023-03-12T13:14:57.414Z,101356.60
2023-03-12T13:17:57.213Z,101354.51
2023-03-12T13:20:58.338Z,101357.91
2023-03-12T13:23:50.850Z,101355.39
2023-03-12T13:26:24.968Z,101361.48
2023-03-12T13:29:11.397Z,101372.37
2023-03-12T13:31:42.825Z,101363.63
2023-03-12T13:34:19.364Z,101363.47
2023-03-12T13:36:49.175Z,101361.38
2023-03-12T13:39:16.828Z,101348.92
2023-03-12T13:41:48.605Z,101348.49
2023-03-12T13:44:28.398Z,101361.77
2023-03-12T13:47:03.415Z,101368.73
2023-03-12T13:49:44.166Z,101375.47
2023-03-12T13:52:32.850Z,101382.60
2023-03-12T13:55:09.171Z,101372.07
2023-03-12T13:57:46.783Z,101383.22
2023-03-12T14:00:30.558Z,101374.49
2023-03-12T14:03:22.473Z,101382.66
2023-03-12T14:05:56.337Z,101397.67
2023-03-12T14:08:48.941Z,101404.58
2023-03-12T14:11:26.031Z,101390.58
2023-03-12T14:14:18.473Z,101390.25
2023-03-12T14:16:52.368Z,101387.96
2023-03-12T14:19:29.811Z,101383.62
2023-03-12T14:22:01.371Z,101379.40
2023-03-12T14:24:36.326Z,101380.12
2023-03-12T14:27:06.971Z,101384.10
2023-03-12T14:29:44.936Z,101379.63
2023-03-12T14:32:20.119Z,101377.37
2023-03-12T14:34:54.947Z,101375.38
2023-03-12T14:37:25.353Z,101365.30
2023-03-12T14:40:03.023Z,101361.45
2023-03-12T14:42:36.320Z,101353.01
2023-03-12T14:45:18.432Z,101346.80
2023-03-12T14:47:48.783Z,101342.64
2023-03-12T14:50:22.527Z,101345.03
2023-03-12T14:52:50.285Z,101341.63
2023-03-12T14:55:25.120Z,101340.35
2023-03-12T14:58:18.271Z,101339.77
2023-03-12T15:00:55.523Z,101342.22
2023-03-12T15:03:23.282Z,101334.70
2023-03-12T15:05:52.504Z,101341.23
2023-03-12T15:08:20.894Z,101335.48
2023-03-12T15:10:55.358Z,101348.73
2023-03-12T15:13:24.657Z,101339.05
2023-03-12T15:15:55.620Z,101346.37
2023-03-12T15:18:33.633Z,101352.88
2023-03-12T15:21:03.699Z,101356.05
2023-03-12T15:23:34.674Z,101363.41
2023-03-12T15:26:13.450Z,101357.65
2023-03-12T15:28:41.587Z,101354.12
2023-03-12T15:31:16.049Z,101348.20
2023-03-12T15:33:45.405Z,101355.03
2023-03-12T15:36:16.029Z,101350.59
2023-03-12T15:38:50.193Z,101350.88
2023-03-12T15:41:50.263Z,101347.02
2023-03-12T15:44:26.669Z,101352.45
2023-03-12T15:47:12.479Z,101343.72
2023-03-12T15:49:40.880Z,101337.87
2023-03-12T15:52:30.423Z,101337.24
2023-03-12T15:55:22.652Z,101329.92
2023-03-12T15:57:56.163Z,101328.97
2023-03-12T16:00:29.979Z,101340.29
2023-03-12T16:03:00.587Z,101343.39
2023-03-12T16:05:34.393Z,101354.87
2023-03-12T16:08:16.997Z,101350.59
2023-03-12T16:10:45.376Z,101350.75
2023-03-12T16:13:16.922Z,101341.53
2023-03-12T16:15:47.744Z,101349.21
2023-03-12T16:18:18.144Z,101350.52
2023-03-12T16:20:47.386Z,101356.73
2023-03-12T16:23:16.173Z,101342.90
2023-03-12T16:25:46.316Z,101348.79
2023-03-12T16:28:19.656Z,101350.39
2023-03-12T16:30:47.556Z,101357.88
2023-03-12T16:33:24.116Z,101363.30
2023-03-12T16:35:52.247Z,101364.91
2023-03-12T16:38:19.990Z,101360.92
2023-03-12T16:40:51.043Z,101359.35
2023-03-12T16:43:26.544Z,101367.33
2023-03-12T16:45:55.596Z,101367.52
2023-03-12T16:48:25.447Z,101358.80
2023-03-12T16:50:56.726Z,101359.77
2023-03-12T16:53:25.172Z,101357.55
2023-03-12T16:56:02.012Z,101364.26
2023-03-12T16:58:31.094Z,101363.30
2023-03-12T17:01:00.172Z,101369.20
2023-03-12T17:03:39.479Z,101369.88
2023-03-12T17:06:08.514Z,101371.16
2023-03-12T17:08:37.128Z,101381.20
2023-03-12T17:11:24.027Z,101376.91
2023-03-12T17:13:55.531Z,101376.26
2023-03-12T17:16:24.325Z,101372.79
2023-03-12T17:18:52.265Z,101377.40
2023-03-12T17:21:21.200Z,101374.88
2023-03-12T17:23:51.523Z,101376.35
2023-03-12T17:26:20.060Z,101378.55
2023-03-12T17:28:47.897Z,101382.08
2023-03-12T17:31:15.648Z,101384.79
2023-03-12T17:33:44.454Z,101384.14
2023-03-12T17:36:12.323Z,101386.82
2023-03-12T17:38:40.355Z,101389.89
2023-03-12T17:41:23.444Z,101397.02
2023-03-12T17:43:53.644Z,101399.24
2023-03-12T17:46:21.471Z,101387.31
2023-03-12T17:48:49.304Z,101391.92
2023-03-12T17:51:17.031Z,101394.93
2023-03-12T17:53:44.819Z,101378.88
2023-03-12T17:56:19.001Z,101391.30
2023-03-12T17:58:47.428Z,101381.26
2023-03-12T18:01:16.051Z,101388.09
2023-03-12T18:03:45.057Z,101395.26
2023-03-12T18:06:13.428Z,101387.77
2023-03-12T18:08:41.202Z,101389.99
2023-03-12T18:11:08.931Z,101382.05
2023-03-12T18:13:37.562Z,101383.91
2023-03-12T18:16:06.984Z,101380.12
2023-03-12T18:18:34.928Z,101383.58
2023-03-12T18:21:02.629Z,101375.96
2023-03-12T18:23:30.325Z,101377.37
2023-03-12T18:25:58.040Z,101374.98
2023-03-12T18:28:25.889Z,101376.39
2023-03-12T18:30:54.774Z,101373.70
2023-03-12T18:33:22.521Z,101374.30
2023-03-12T18:35:51.570Z,101380.48
2023-03-12T18:38:20.277Z,101386.36
2023-03-12T18:40:48.007Z,101384.10
2023-03-12T18:43:15.866Z,101379.33
2023-03-12T18:45:45.129Z,101386.00
2023-03-12T18:48:12.996Z,101386.91
2023-03-12T18:50:40.772Z,101393.59
2023-03-12T18:53:08.499Z,101390.71
2023-03-12T18:55:36.203Z,101393.72
2023-03-12T18:58:04.139Z,101389.73
2023-03-12T19:00:31.916Z,101395.12
2023-03-12T19:02:59.730Z,101396.86
2023-03-12T19:05:27.417Z,101393.36
2023-03-12T19:07:55.156Z,101404.45
2023-03-12T19:10:22.840Z,101408.70
2023-03-12T19:12:53.217Z,101407.39
2023-03-12T19:15:23.365Z,101411.18
2023-03-12T19:17:51.391Z,101411.57
2023-03-12T19:20:19.464Z,101415.82
2023-03-12T19:22:47.147Z,101420.08
2023-03-12T19:25:15.378Z,101421.41
2023-03-12T19:27:43.144Z,101414.29
2023-03-12T19:30:11.654Z,101414.09
2023-03-12T19:32:43.738Z,101417.52
2023-03-12T19:35:13.783Z,101424.29
2023-03-12T19:37:42.294Z,101421.55
2023-03-12T19:40:11.931Z,101418.51
2023-03-12T19:42:39.768Z,101418.93
2023-03-12T19:45:08.166Z,101417.95
2023-03-12T19:47:36.018Z,101418.87
2023-03-12T19:50:04.151Z,101410.46
2023-03-12T19:52:31.813Z,101417.98
2023-03-12T19:55:04.803Z,101418.93
2023-03-12T19:57:34.119Z,101408.40
2023-03-12T20:00:01.900Z,101415.86
2023-03-12T20:02:30.048Z,101412.29
2023-03-12T20:04:57.818Z,101411.18
2023-03-12T20:07:25.636Z,101406.37
2023-03-12T20:09:53.559Z,101409.35
2023-03-12T20:12:21.256Z,101411.87
2023-03-12T20:14:49.003Z,101412.00
2023-03-12T20:17:16.963Z,101413.37
2023-03-12T20:19:44.753Z,101413.50
2023-03-12T20:22:12.467Z,101416.80
2023-03-12T20:24:40.158Z,101417.85
2023-03-12T20:27:07.828Z,101430.51
2023-03-12T20:29:35.541Z,101431.88
2023-03-12T20:32:03.315Z,101434.40
2023-03-12T20:34:30.974Z,101430.51
2023-03-12T20:36:59.311Z,101431.75
2023-03-12T20:39:27.104Z,101436.78
2023-03-12T20:41:54.872Z,101425.93
2023-03-12T20:44:22.711Z,101426.38
2023-03-12T20:46:50.407Z,101418.77
2023-03-12T20:49:18.164Z,101429.00
2023-03-12T20:51:47.079Z,101426.65
2023-03-12T20:54:14.851Z,101432.77
2023-03-12T20:56:44.710Z,101430.51
2023-03-12T20:59:13.635Z,101440.28
2023-03-12T21:01:41.393Z,101428.22
2023-03-12T21:04:09.110Z,101434.33
2023-03-12T21:06:36.796Z,101438.91
2023-03-12T21:09:04.719Z,101439.04
2023-03-12T21:11:32.522Z,101439.14
2023-03-12T21:14:00.384Z,101436.39
2023-03-12T21:16:28.434Z,101438.45
2023-03-12T21:18:57.522Z,101443.00
2023-03-12T21:21:25.537Z,101441.40
2023-03-12T21:23:54.082Z,101436.49
2023-03-12T21:26:21.916Z,101439.34
2023-03-12T21:28:50.042Z,101448.69
2023-03-12T21:31:18.982Z,101446.30
2023-03-12T21:33:46.909Z,101434.89
2023-03-12T21:36:16.718Z,101441.07
2023-03-12T21:38:44.598Z,101441.76
2023-03-12T21:41:15.629Z,101434.01
2023-03-12T21:43:44.427Z,101431.84
2023-03-12T21:46:14.872Z,101435.73
2023-03-12T21:48:45.911Z,101434.82
2023-03-12T21:51:16.168Z,101433.91
2023-03-12T21:53:44.203Z,101432.66
2023-03-12T21:56:12.362Z,101429.69
2023-03-12T21:58:40.412Z,101426.29
2023-03-12T22:01:11.066Z,101432.77
2023-03-12T22:03:40.119Z,101429.00
2023-03-12T22:06:08.688Z,101427.76
2023-03-12T22:08:37.062Z,101421.61
2023-03-12T22:11:06.251Z,101419.91
2023-03-12T22:13:34.079Z,101411.70
2023-03-12T22:16:07.087Z,101410.79
2023-03-12T22:18:38.607Z,101408.73
2023-03-12T22:21:08.661Z,101403.82
2023-03-12T22:23:37.668Z,101407.39
2023-03-12T22:26:07.610Z,101412.59
2023-03-12T22:28:35.871Z,101414.22
2023-03-12T22:31:06.305Z,101416.58
2023-03-12T22:33:36.923Z,101422.16
2023-03-12T22:36:10.378Z,101406.21
2023-03-12T22:38:39.444Z,101409.41
2023-03-12T22:41:14.613Z,101407.71
2023-03-12T22:43:42.546Z,101403.13
2023-03-12T22:46:10.567Z,101401.89
2023-03-12T22:48:38.570Z,101389.56
2023-03-12T22:51:07.074Z,101385.77
2023-03-12T22:53:35.369Z,101382.93
2023-03-12T22:56:06.525Z,101370.27
2023-03-12T22:58:35.087Z,101360.46
2023-03-12T23:01:08.789Z,101351.14
2023-03-12T23:03:38.656Z,101357.62
2023-03-12T23:06:11.172Z,101353.50
2023-03-12T23:08:39.394Z,101350.65
2023-03-12T23:11:08.136Z,101348.16
2023-03-12T23:13:38.634Z,101351.01
2023-03-12T23:16:09.288Z,101354.19
2023-03-12T23:18:37.737Z,101343.91
2023-03-12T23:21:08.947Z,101340.02
2023-03-12T23:23:38.566Z,101344.08
2023-03-12T23:26:06.860Z,101338.95
2023-03-12T23:28:34.599Z,101329.76
2023-03-12T23:31:08.078Z,101332.50
2023-03-12T23:33:36.343Z,101332.83
2023-03-12T23:36:12.137Z,101336.82
2023-03-12T23:38:40.129Z,101328.58
2023-03-12T23:41:24.081Z,101317.16
2023-03-12T23:43:53.088Z,101317.49
2023-03-12T23:46:20.915Z,101319.09
2023-03-12T23:48:49.061Z,101322.76
2023-03-12T23:51:22.624Z,101311.80
2023-03-12T23:53:52.187Z,101318.31
2023-03-12T23:56:23.477Z,101309.74
2023-03-12T23:58:52.490Z,101297.19
